Terminal Aerodrome Forecast
Issued by NWS Blacksburg, VA

Home | Current Version | Previous Version | Text Only | Print | Product List | Glossary On
Versions: 1 2 3 4 5 6 7 8 9 10 11 12 13 14 15 16 17 18 19 20 21 22 23 24 25 26 27 28 29 30 31 32 33 34 35 36 37 38 39 40 41 42 43 44 45 46 47 48 49 50
000
FTUS41 KRNK 301912 AAA
TAFLYH
TAF AMD
KLYH 301912Z 3019/3118 VRB04KT P6SM VCTS BKN030CB
     FM302100 29007KT P6SM VCSH SCT030 BKN100
     FM302300 33007KT P6SM BKN120
     FM311200 01004KT P6SM SCT100 BKN250=

USA.gov is the U.S. government's official web portal to all federal, state and local government web resources and services.